• Join FlightAware (Why Join?)
  • Login
  • US Flag 
05:08AM EDT


 

Airport Tracker/Info


-or-


 

Live Flight TrackerFlight Track Log ✈ ASQ5685 ✈ 26-Jul-2013 ✈ KATL - KIAD

Flight Track Log - Related Links

Times and Time Zones

All times are in EDT time to prevent confusion due to time zone crossing. See the ASQ5685 flight status page for this flight to view local times or setup timezone preferences in your user account.

Time Position Orientation Groundspeed Altitude Reporting Facility
EDT Latitude Longitude Course Direction KTS MPH feet Rate Location/Type
09:28AM 33.6333 -84.3833 48° Northeast 171 197 2,200  Level Atlanta TRACON
09:29AM 33.6333 -84.3167 90° East 244 281 3,800 1,980 Climbing Atlanta TRACON
09:30AM 33.8489 -84.1758 73° East  Level Estimated
09:30AM 33.6333 -84.2333 90° East 272 313 5,800  Level Atlanta TRACON
09:31AM 33.9195 -84.0915 54° Northeast  Level Estimated
09:31AM 33.6900 -84.0789 66° East 314 361 10,000  Level Atlanta Center
09:32AM 33.8995 -83.9742 102° East  Level FlightAware Approximate
09:32AM 33.7442 -83.9964 52° Northeast 308 354 11,200  Level Atlanta Center
09:33AM 33.9707 -83.8906 48° Northeast  Level Estimated
09:33AM 33.8067 -83.9014 52° Northeast 337 388 12,600  Level Atlanta Center
09:34AM 33.8608 -83.8186 52° Northeast 349 402 13,900 1,260 Climbing Atlanta Center
09:35AM 33.9253 -83.7208 52° Northeast 354 407 15,200 1,260 Climbing Atlanta Center
09:36AM 33.9856 -83.6206 54° Northeast 365 420 16,500 1,200 Climbing Atlanta Center
09:37AM 34.0500 -83.5247 51° Northeast 365 420 17,700 900 Climbing Atlanta Center
09:38AM 34.1142 -83.4217 53° Northeast 372 428 18,400 720 Climbing Atlanta Center
09:39AM 34.1803 -83.3131 54° Northeast 387 445 19,200 780 Climbing Atlanta Center
09:40AM 34.2486 -83.2044 53° Northeast 394 453 20,000 840 Climbing Atlanta Center
09:41AM 34.3125 -83.0931 55° Northeast 401 461 20,900 840 Climbing Atlanta Center
09:42AM 34.3886 -82.9767 52° Northeast 401 461 21,700 660 Climbing Atlanta Center
09:43AM 34.4544 -82.8647 54° Northeast 401 461 22,300 600 Climbing Atlanta Center
09:44AM 34.5286 -82.7578 50° Northeast 406 467 22,900 600 Climbing Atlanta Center
09:45AM 34.5939 -82.6433 55° Northeast 411 473 23,500 600 Climbing Atlanta Center
09:46AM 34.6597 -82.5464 50° Northeast 411 473 24,100 1,740 Climbing Atlanta Center
09:47AM 34.7250 -82.4314 55° Northeast 411 473 27,000 1,440 Climbing Atlanta Center
09:48AM 34.7964 -82.3214 52° Northeast 416 479 27,000 -600 Level Atlanta Center
09:49AM 34.8658 -82.2033 54° Northeast 416 479 25,900 -300 Descending Atlanta Center
09:50AM 34.9372 -82.0931 52° Northeast 416 479 26,500 540 Climbing Atlanta Center
09:51AM 35.0122 -81.9669 54° Northeast 416 479 27,000 240 Climbing Atlanta Center
09:52AM 35.0789 -81.8458 56° Northeast 421 484 27,000  Level Atlanta Center
09:53AM 35.1436 -81.7222 57° Northeast 429 494 27,000  Level Atlanta Center
09:54AM 35.2058 -81.6011 58° Northeast 434 499 27,000  Level Atlanta Center
09:55AM 35.2700 -81.4797 57° Northeast 422 486 27,000  Level Atlanta Center
09:56AM 35.3303 -81.3631 58° Northeast 417 480 27,000  Level Atlanta Center
09:57AM 35.3903 -81.2492 57° Northeast 412 474 27,000  Level Atlanta Center
09:58AM 35.4500 -81.1300 58° Northeast 412 474 27,000  Level Atlanta Center
09:59AM 35.5119 -81.0128 57° Northeast 412 474 27,000  Level Atlanta Center
10:00AM 35.5717 -80.8983 57° Northeast 406 467 27,000  Level Atlanta Center
10:01AM 35.6333 -80.7861 56° Northeast 401 461 27,000  Level Atlanta Center
10:02AM 35.6889 -80.6739 59° Northeast 396 456 27,000  Level Atlanta Center
10:03AM 35.7503 -80.5561 57° Northeast 396 456 27,000  Level Atlanta Center
10:04AM 35.8075 -80.4436 58° Northeast 396 456 27,000  Level Atlanta Center
10:06AM 35.9111 -80.2492 57° Northeast 394 453 27,000  Level Washington Center
10:07AM 35.9656 -80.1344 60° Northeast 394 453 27,000  Level Washington Center
10:08AM 36.0217 -80.0272 57° Northeast 389 448 27,000  Level Washington Center
10:09AM 36.0844 -79.9125 56° Northeast 389 448 27,000  Level Washington Center
10:10AM 36.1467 -79.8028 55° Northeast 389 448 27,000  Level Washington Center
10:11AM 36.2178 -79.6778 55° Northeast 389 448 27,000  Level Washington Center
10:12AM 36.2736 -79.5725 57° Northeast 389 448 27,000  Level Washington Center
10:13AM 36.3422 -79.4522 55° Northeast 394 453 27,000  Level Washington Center
10:14AM 36.3975 -79.3492 56° Northeast 394 453 27,000  Level Washington Center
10:15AM 36.4617 -79.2361 55° Northeast 394 453 27,000 -180 Level Washington Center
10:16AM 36.5275 -79.1253 54° Northeast 394 453 26,700 -720 Descending Washington Center
10:17AM 36.5936 -79.0067 55° Northeast 399 459 25,600 -900 Descending Washington Center
10:18AM 36.6639 -78.8831 55° Northeast 416 479 25,000 -300 Descending Washington Center
10:19AM 36.7275 -78.7586 57° Northeast 429 494 25,000 -1,560 Level Washington Center
10:20AM 36.7911 -78.6394 56° Northeast 429 494 22,000 -360 Descending Washington Center
10:21AM 36.8567 -78.5225 55° Northeast 418 481 24,300 600 Climbing Washington Center
10:22AM 36.9156 -78.4131 56° Northeast 395 455 23,300 -1,140 Descending Washington Center
10:23AM 36.9853 -78.2908 54° Northeast 388 447 22,100 -720 Descending Washington Center
10:24AM 37.0519 -78.1942 49° Northeast 383 441 22,000 -60 Descending Washington Center
10:25AM 37.1392 -78.1269 32° Northeast 363 418 22,000  Level Washington Center
10:26AM 37.2322 -78.0594 30° Northeast 368 423 22,000  Level Washington Center
10:27AM 37.3214 -77.9892 32° Northeast 373 429 22,000  Level Washington Center
10:28AM 37.4103 -77.9189 32° Northeast 373 429 22,000 -120 Level Washington Center
10:29AM 37.4992 -77.8483 32° Northeast 373 429 21,800 -840 Descending Washington Center
10:30AM 37.5919 -77.7908 26° Northeast 368 423 20,400 -1,440 Descending Washington Center
10:31AM 37.6806 -77.7408 24° Northeast 349 402 19,000 -1,380 Descending Washington Center
10:32AM 37.7669 -77.6856 27° Northeast 344 396 17,700 -1,500 Descending Washington Center
10:33AM 37.8575 -77.6381 22° Northeast 344 396 16,100 -1,680 Descending Washington Center
10:34AM 37.9419 -77.5878 25° Northeast 339 390 14,400 -1,680 Descending Washington Center
10:35AM 38.0219 -77.5369 27° Northeast 327 376 12,700 -1,740 Descending Washington Center
10:36AM 38.0997 -77.4942 23° Northeast 315 362 11,000 -1,380 Descending Washington Center
10:37AM 38.1778 -77.4486 25° Northeast 309 356 10,000 -840 Descending Washington Center
10:38AM 38.2492 -77.4056 25° Northeast 298 343 9,300 -900 Descending Washington Center
10:39AM 38.3289 -77.3836 12° North 293 337 8,300 -1,020 Descending Washington Center
10:40AM 38.4058 -77.3856 359° North 282 325 7,300 -1,020 Descending Washington Center
10:41AM 38.4719 -77.4322 331° Northwest 259 298 6,300 -1,020 Descending Washington Center
10:42AM 38.5447 -77.4472 351° North 259 298 5,300 -1,020 Descending Washington Center
10:43AM 38.6197 -77.4436 North 259 298 4,300 -780 Descending Washington Center
10:44AM 38.6667 -77.4333 10° North 257 296 4,000 -780 Descending Potomac TRACON
10:45AM 38.7500 -77.4333 360° North 252 290 3,000 -1,020 Descending Potomac TRACON